createdAt,value
2022-09-06T00:00:02.335Z,0
2022-09-06T00:05:02.254Z,0
2022-09-06T00:10:02.496Z,0
2022-09-06T00:15:02.310Z,0
2022-09-06T00:20:02.336Z,0
2022-09-06T00:25:02.310Z,0
2022-09-06T00:30:02.665Z,0
2022-09-06T00:35:02.319Z,0
2022-09-06T00:40:02.451Z,0
2022-09-06T00:45:02.328Z,0
2022-09-06T00:50:02.478Z,0
2022-09-06T00:55:02.332Z,0
2022-09-06T01:00:02.389Z,0
2022-09-06T01:05:02.312Z,0
2022-09-06T01:10:02.731Z,0
2022-09-06T01:15:02.316Z,0
2022-09-06T01:20:02.335Z,0
2022-09-06T01:25:02.456Z,0
2022-09-06T01:30:02.479Z,0
2022-09-06T01:35:02.318Z,0
2022-09-06T01:40:02.535Z,0
2022-09-06T01:45:02.563Z,0
2022-09-06T01:50:02.499Z,0
2022-09-06T01:55:02.400Z,0
2022-09-06T02:00:02.354Z,0
2022-09-06T02:05:02.534Z,0
2022-09-06T02:10:02.345Z,0
2022-09-06T02:15:02.355Z,0
2022-09-06T02:20:02.508Z,0
2022-09-06T02:25:02.398Z,0
2022-09-06T02:30:02.452Z,0
2022-09-06T02:35:02.360Z,0
2022-09-06T02:40:02.659Z,0
2022-09-06T02:45:02.703Z,0
2022-09-06T02:50:02.420Z,0
2022-09-06T02:55:02.403Z,0
2022-09-06T03:00:02.535Z,0
2022-09-06T03:05:02.401Z,0
2022-09-06T03:10:02.410Z,0
2022-09-06T03:15:02.671Z,0
2022-09-06T03:20:02.631Z,0
2022-09-06T03:25:02.474Z,0
2022-09-06T03:30:02.454Z,0
2022-09-06T03:35:02.496Z,0
2022-09-06T03:40:02.488Z,0
2022-09-06T03:45:02.430Z,0
2022-09-06T03:50:02.432Z,0
2022-09-06T03:55:02.661Z,0
2022-09-06T04:00:02.832Z,0
2022-09-06T04:05:02.462Z,0
2022-09-06T04:10:02.500Z,0
2022-09-06T04:15:02.785Z,0
2022-09-06T04:20:02.561Z,0
2022-09-06T04:25:02.463Z,0
2022-09-06T04:30:02.473Z,0
2022-09-06T04:35:02.993Z,0
2022-09-06T04:40:02.606Z,0
2022-09-06T04:45:02.522Z,0.3198941798941799
2022-09-06T04:50:02.494Z,0.2986031746031746
2022-09-06T04:55:02.718Z,0.3838730158730159
2022-09-06T05:00:02.611Z,0.3884761904761905
2022-09-06T05:05:02.576Z,0.5307619047619048
2022-09-06T05:10:02.566Z,0.6367513227513227
2022-09-06T05:15:02.626Z,0.6660952380952381
2022-09-06T05:20:02.618Z,0.9445714285714286
2022-09-06T05:25:02.720Z,1.1007195767195768
2022-09-06T05:30:02.725Z,1.2837354497354498
2022-09-06T05:35:02.582Z,1.6243386243386244
2022-09-06T05:40:02.837Z,1.9430899470899474
2022-09-06T05:45:02.546Z,2.3162857142857143
2022-09-06T05:50:02.714Z,3.0518835978835983
2022-09-06T05:55:02.565Z,2.947703703703704
2022-09-06T06:00:02.651Z,3.280846560846561
2022-09-06T06:05:02.603Z,5.670253968253968
2022-09-06T06:10:02.765Z,9.58178835978836
2022-09-06T06:15:02.578Z,6.875386243386244
2022-09-06T06:20:02.587Z,4.624380952380953
2022-09-06T06:25:02.748Z,12.514708994708995
2022-09-06T06:30:02.596Z,14.693280423280425
2022-09-06T06:35:02.714Z,16.534
2022-09-06T06:40:02.754Z,18.431619047619048
2022-09-06T06:45:02.779Z,20.54248677248677
2022-09-06T06:50:02.578Z,22.644042328042328
2022-09-06T06:55:02.605Z,24.091312169312168
2022-09-06T07:00:02.740Z,25.9614708994709
2022-09-06T07:05:02.794Z,27.931544973544973
2022-09-06T07:15:02.643Z,31.74926984126984
2022-09-06T07:20:16.246Z,33.55680423280423
2022-09-06T07:25:02.750Z,35.374306878306875
2022-09-06T07:30:02.619Z,37.22994708994709
2022-09-06T07:35:02.629Z,38.95306878306879
2022-09-06T07:40:02.934Z,40.935513227513226
2022-09-06T07:45:02.629Z,42.59295238095238
2022-09-06T07:55:02.743Z,38.21068783068783
2022-09-06T08:00:02.670Z,43.8916507936508
2022-09-06T08:05:02.809Z,56.03849735449735
2022-09-06T08:10:02.662Z,54.90175661375661
2022-09-06T08:15:02.831Z,55.23482539682539
2022-09-06T08:20:02.731Z,56.12501587301587
2022-09-06T08:25:02.724Z,48.53324867724867
2022-09-06T08:30:02.765Z,26.696878306878308
2022-09-06T08:35:02.776Z,36.613841269841274
2022-09-06T08:40:02.763Z,21.83889947089947
2022-09-06T08:45:02.720Z,19.56994708994709
2022-09-06T08:50:02.899Z,17.74278306878307
2022-09-06T08:55:02.729Z,27.628116402116405
2022-09-06T09:00:02.739Z,25.474264550264554
2022-09-06T09:05:02.740Z,24.454920634920637
2022-09-06T09:10:02.718Z,19.395619047619046
2022-09-06T09:15:02.780Z,26.068190476190477
2022-09-06T09:20:02.842Z,28.85995767195767
2022-09-06T09:25:02.901Z,15.286888888888889
2022-09-06T09:35:02.710Z,48.284941798941794
2022-09-06T09:40:02.948Z,60.07700529100529
2022-09-06T09:45:02.734Z,60.745555555555555
2022-09-06T09:50:01.426Z,72.14633862433863
2022-09-06T09:55:01.314Z,30.879756613756616
2022-09-06T10:00:01.344Z,18.066560846560847
2022-09-06T10:05:01.349Z,64.12775661375662
2022-09-06T10:10:01.586Z,78.7690582010582
2022-09-06T10:15:03.594Z,43.44907936507937
2022-09-06T10:20:01.318Z,84.07499470899471
2022-09-06T10:25:01.573Z,70.23825396825397
2022-09-06T10:30:01.438Z,80.40477248677249
2022-09-06T10:35:01.366Z,77.25379894179895
2022-09-06T10:40:01.586Z,79.91169312169312
2022-09-06T10:45:01.366Z,79.14686772486772
2022-09-06T10:50:01.330Z,81.22669841269841
2022-09-06T10:55:01.514Z,80.63296296296298
2022-09-06T11:00:01.396Z,81.43010582010582
2022-09-06T11:10:01.482Z,64.52653968253969
2022-09-06T11:15:01.356Z,86.65540740740741
2022-09-06T11:20:01.412Z,84.02874074074074
2022-09-06T11:25:01.521Z,59.267671957671965
2022-09-06T11:30:01.438Z,39.238645502645504
2022-09-06T11:35:01.392Z,35.145798941798944
2022-09-06T11:40:29.968Z,44.401407407407405
2022-09-06T11:45:01.420Z,26.602931216931214
2022-09-06T11:50:01.517Z,28.343597883597887
2022-09-06T11:55:01.416Z,28.765089947089944
2022-09-06T12:00:01.360Z,23.623343915343913
2022-09-06T12:05:01.415Z,22.232232804232805
2022-09-06T12:25:01.453Z,14.687703703703706
2022-09-06T12:30:01.470Z,10.738264550264551
2022-09-06T12:40:01.634Z,12.36499470899471
2022-09-06T12:45:01.414Z,12.882074074074074
2022-09-06T12:50:01.468Z,14.700719576719578
2022-09-06T12:55:01.548Z,18.044931216931218
2022-09-06T13:00:01.482Z,15.782137566137566
2022-09-06T13:05:01.475Z,12.631132275132275
2022-09-06T13:10:01.478Z,9.562222222222221
2022-09-06T13:15:01.676Z,10.07867724867725
2022-09-06T13:20:01.594Z,13.015174603174604
2022-09-06T13:25:01.513Z,17.353047619047622
2022-09-06T13:30:01.571Z,16.047735449735452
2022-09-06T13:35:01.529Z,11.231502645502644
2022-09-06T13:40:01.662Z,10.759037037037038
2022-09-06T13:45:02.383Z,11.21757671957672
2022-09-06T13:50:01.521Z,10.237756613756614
2022-09-06T13:55:01.529Z,8.834804232804233
2022-09-06T14:00:01.704Z,12.90162962962963
2022-09-06T14:05:01.551Z,28.1769417989418
2022-09-06T14:10:01.638Z,26.59184126984127
2022-09-06T14:15:01.692Z,18.17119576719577
2022-09-06T14:20:01.591Z,14.06131216931217
2022-09-06T14:25:01.550Z,14.54405291005291
2022-09-06T14:30:01.712Z,12.353650793650795
2022-09-06T14:35:01.517Z,10.943195767195768
2022-09-06T14:40:01.722Z,11.007798941798942
2022-09-06T14:45:01.725Z,12.80699470899471
2022-09-06T14:50:01.559Z,12.39764021164021
2022-09-06T14:55:01.598Z,14.82657142857143
2022-09-06T15:00:01.657Z,25.33378835978836
2022-09-06T15:05:01.615Z,10.391809523809524
2022-09-06T15:10:01.602Z,11.627629629629629
2022-09-06T15:15:01.572Z,12.87284656084656
2022-09-06T15:20:01.584Z,12.499841269841271
2022-09-06T15:25:01.596Z,35.32212698412699
2022-09-06T15:30:01.651Z,49.89497354497354
2022-09-06T15:35:04.616Z,38.66741798941799
2022-09-06T15:40:01.663Z,13.94863492063492
2022-09-06T15:45:01.776Z,6.612232804232804
2022-09-06T15:50:01.803Z,6.93389417989418
2022-09-06T15:55:01.621Z,7.701174603174603
2022-09-06T16:00:01.651Z,7.469301587301588
2022-09-06T16:05:01.674Z,7.229724867724868
2022-09-06T16:10:01.858Z,13.124433862433863
2022-09-06T16:15:01.627Z,9.816370370370372
2022-09-06T16:20:01.639Z,27.18341798941799
2022-09-06T16:25:01.857Z,10.07368253968254
2022-09-06T16:30:01.644Z,6.499851851851851
2022-09-06T16:35:01.640Z,6.005089947089947
2022-09-06T16:40:01.848Z,4.196010582010582
2022-09-06T16:45:01.666Z,3.2413121693121694
2022-09-06T16:50:01.729Z,2.7819576719576715
2022-09-06T16:55:01.716Z,2.0225925925925923
2022-09-06T17:00:01.862Z,1.7994708994708997
2022-09-06T17:05:01.684Z,1.5600529100529104
2022-09-06T17:10:01.753Z,1.2102751322751324
2022-09-06T17:15:01.817Z,1.0178941798941799
2022-09-06T17:20:01.680Z,0.778084656084656
2022-09-06T17:25:01.707Z,0.45002116402116404
2022-09-06T17:30:01.699Z,0.2643068783068783
2022-09-06T17:35:01.849Z,0.33432804232804236
2022-09-06T17:40:01.765Z,0.1436084656084656
2022-09-06T17:45:01.689Z,0
2022-09-06T17:50:01.904Z,0
2022-09-06T17:55:01.746Z,0
2022-09-06T18:00:01.710Z,0
2022-09-06T18:05:01.840Z,0
2022-09-06T18:10:01.952Z,0
2022-09-06T18:15:06.636Z,0
2022-09-06T18:20:01.725Z,0
2022-09-06T18:25:01.913Z,0
2022-09-06T18:30:01.729Z,0
2022-09-06T18:35:01.756Z,0
2022-09-06T18:40:01.890Z,0
2022-09-06T18:45:02.042Z,0
2022-09-06T18:50:01.777Z,0
2022-09-06T18:55:01.789Z,0
2022-09-06T19:00:01.818Z,0
2022-09-06T19:05:02.198Z,0
2022-09-06T19:10:01.780Z,0
2022-09-06T19:15:01.771Z,0
2022-09-06T19:20:01.889Z,0
2022-09-06T19:25:01.888Z,0
2022-09-06T19:30:01.791Z,0
2022-09-06T19:35:01.804Z,0
2022-09-06T19:40:02.048Z,0
2022-09-06T19:45:01.897Z,0
2022-09-06T19:50:01.821Z,0
2022-09-06T19:55:01.855Z,0
2022-09-06T20:00:02.029Z,0
2022-09-06T20:05:01.822Z,0
2022-09-06T20:10:01.886Z,0
2022-09-06T20:15:01.946Z,0
2022-09-06T20:20:01.831Z,0
2022-09-06T20:25:01.903Z,0
2022-09-06T20:30:01.858Z,0
2022-09-06T20:35:01.997Z,0
2022-09-06T20:40:01.924Z,0
2022-09-06T20:45:01.852Z,0
2022-09-06T20:50:01.892Z,0
2022-09-06T20:55:02.084Z,0
2022-09-06T21:00:01.944Z,0
2022-09-06T21:05:01.970Z,0
2022-09-06T21:10:01.879Z,0
2022-09-06T21:15:02.073Z,0
2022-09-06T21:20:01.985Z,0
2022-09-06T21:25:01.913Z,0
2022-09-06T21:30:01.896Z,0
2022-09-06T21:35:02.094Z,0
2022-09-06T21:40:02.041Z,0
2022-09-06T21:45:01.903Z,0
2022-09-06T21:50:05.955Z,0
2022-09-06T21:55:05.975Z,0
2022-09-06T22:00:05.996Z,0
2022-09-06T22:05:05.957Z,0
2022-09-06T22:10:06.069Z,0
2022-09-06T22:15:05.975Z,0
2022-09-06T22:20:05.972Z,0
2022-09-06T22:25:06.054Z,0
2022-09-06T22:30:06.181Z,0
2022-09-06T22:35:05.982Z,0
2022-09-06T22:40:06.162Z,0
2022-09-06T22:45:05.970Z,0
2022-09-06T22:50:06.173Z,0
2022-09-06T22:55:06.061Z,0
2022-09-06T23:00:06.013Z,0
2022-09-06T23:05:06.075Z,0
2022-09-06T23:10:06.195Z,0
2022-09-06T23:15:06.124Z,0
2022-09-06T23:20:06.000Z,0
2022-09-06T23:25:06.180Z,0
2022-09-06T23:30:06.182Z,0
2022-09-06T23:35:06.169Z,0
2022-09-06T23:40:09.057Z,0
2022-09-06T23:45:06.221Z,0
2022-09-06T23:50:06.297Z,0
2022-09-06T23:55:06.062Z,0
